sensor_id;sensor_type;location;lat;lon;timestamp;pressure;altitude;pressure_sealevel;temperature;humidity
74627;BME280;63132;52.268;5.192;2023-09-19T18:36:50;100607.63;;;17.25;83.84
74627;BME280;63132;52.268;5.192;2023-09-19T18:39:16;100618.28;;;17.39;83.35
74627;BME280;63132;52.268;5.192;2023-09-19T18:41:45;100612.13;;;17.44;83.54
74627;BME280;63132;52.268;5.192;2023-09-19T18:44:12;100622.06;;;17.46;83.31
74627;BME280;63132;52.268;5.192;2023-09-19T18:46:37;100608.59;;;17.53;83.38
74627;BME280;63132;52.268;5.192;2023-09-19T18:49:07;100611.97;;;17.48;82.94
74627;BME280;63132;52.268;5.192;2023-09-19T18:51:33;100617.78;;;17.32;83.11
74627;BME280;63132;52.268;5.192;2023-09-19T18:53:58;100619.53;;;17.38;83.15
74627;BME280;63132;52.268;5.192;2023-09-19T18:56:25;100617.38;;;17.42;82.88
74627;BME280;63132;52.268;5.192;2023-09-19T18:58:51;100607.81;;;17.53;82.74
74627;BME280;63132;52.268;5.192;2023-09-19T19:01:16;100612.63;;;17.52;82.72
74627;BME280;63132;52.268;5.192;2023-09-19T19:03:42;100616.41;;;17.58;82.33
74627;BME280;63132;52.268;5.192;2023-09-19T19:06:12;100598.63;;;17.52;82.90
74627;BME280;63132;52.268;5.192;2023-09-19T19:08:41;100607.19;;;17.58;82.66
74627;BME280;63132;52.268;5.192;2023-09-19T19:11:08;100586.25;;;17.62;82.42
74627;BME280;63132;52.268;5.192;2023-09-19T19:13:35;100596.16;;;17.54;82.51
74627;BME280;63132;52.268;5.192;2023-09-19T19:16:00;100594.13;;;17.55;82.38
74627;BME280;63132;52.268;5.192;2023-09-19T19:18:26;100591.78;;;17.53;82.36
74627;BME280;63132;52.268;5.192;2023-09-19T19:21:02;100610.94;;;17.55;82.22
74627;BME280;63132;52.268;5.192;2023-09-19T19:23:30;100602.34;;;17.71;81.61
74627;BME280;63132;52.268;5.192;2023-09-19T19:25:56;100604.66;;;17.73;81.64
74627;BME280;63132;52.268;5.192;2023-09-19T19:28:26;100601.66;;;17.89;80.72
74627;BME280;63132;52.268;5.192;2023-09-19T19:30:51;100593.41;;;17.94;80.17
74627;BME280;63132;52.268;5.192;2023-09-19T19:33:17;100602.31;;;18.02;79.73
74627;BME280;63132;52.268;5.192;2023-09-19T19:35:42;100589.03;;;17.84;80.04
74627;BME280;63132;52.268;5.192;2023-09-19T19:38:08;100603.06;;;17.93;79.86
74627;BME280;63132;52.268;5.192;2023-09-19T19:40:33;100607.88;;;17.93;79.59
74627;BME280;63132;52.268;5.192;2023-09-19T19:42:59;100602.25;;;17.84;79.71
74627;BME280;63132;52.268;5.192;2023-09-19T19:45:25;100608.91;;;17.77;80.35
74627;BME280;63132;52.268;5.192;2023-09-19T19:47:51;100605.97;;;17.81;79.87
74627;BME280;63132;52.268;5.192;2023-09-19T19:50:16;100608.50;;;17.88;79.64
74627;BME280;63132;52.268;5.192;2023-09-19T19:52:42;100615.91;;;18.04;78.76
74627;BME280;63132;52.268;5.192;2023-09-19T19:55:08;100615.72;;;17.98;79.55
74627;BME280;63132;52.268;5.192;2023-09-19T19:57:34;100606.44;;;18.10;78.91
74627;BME280;63132;52.268;5.192;2023-09-19T20:00:00;100612.44;;;17.99;79.05
74627;BME280;63132;52.268;5.192;2023-09-19T20:02:25;100621.84;;;17.84;79.14
74627;BME280;63132;52.268;5.192;2023-09-19T20:04:50;100622.09;;;17.98;79.31
74627;BME280;63132;52.268;5.192;2023-09-19T20:07:16;100620.53;;;17.97;79.01
74627;BME280;63132;52.268;5.192;2023-09-19T20:09:41;100633.78;;;18.06;78.93
74627;BME280;63132;52.268;5.192;2023-09-19T20:12:07;100634.44;;;18.10;78.63
74627;BME280;63132;52.268;5.192;2023-09-19T20:14:32;100635.06;;;18.14;78.47
74627;BME280;63132;52.268;5.192;2023-09-19T20:16:58;100630.44;;;18.20;78.14
74627;BME280;63132;52.268;5.192;2023-09-19T20:19:25;100638.63;;;18.06;78.21
74627;BME280;63132;52.268;5.192;2023-09-19T20:21:54;100638.03;;;18.11;78.38
74627;BME280;63132;52.268;5.192;2023-09-19T20:24:20;100635.28;;;17.89;79.29
74627;BME280;63132;52.268;5.192;2023-09-19T20:26:48;100639.38;;;17.97;80.12
74627;BME280;63132;52.268;5.192;2023-09-19T20:29:13;100620.22;;;17.95;80.06
74627;BME280;63132;52.268;5.192;2023-09-19T20:31:39;100618.25;;;18.14;79.51
74627;BME280;63132;52.268;5.192;2023-09-19T20:34:04;100617.03;;;18.24;79.56
74627;BME280;63132;52.268;5.192;2023-09-19T20:36:30;100609.31;;;17.97;79.69
74627;BME280;63132;52.268;5.192;2023-09-19T20:38:55;100605.34;;;18.17;79.18
74627;BME280;63132;52.268;5.192;2023-09-19T20:41:21;100602.88;;;18.19;79.48
74627;BME280;63132;52.268;5.192;2023-09-19T20:43:48;100605.69;;;18.19;79.35
74627;BME280;63132;52.268;5.192;2023-09-19T20:46:13;100609.75;;;18.27;79.14
74627;BME280;63132;52.268;5.192;2023-09-19T20:48:39;100606.44;;;18.19;78.83
74627;BME280;63132;52.268;5.192;2023-09-19T20:51:11;100611.16;;;18.32;78.39
74627;BME280;63132;52.268;5.192;2023-09-19T20:53:44;100611.59;;;18.21;79.02
74627;BME280;63132;52.268;5.192;2023-09-19T20:56:09;100612.09;;;18.38;78.31
74627;BME280;63132;52.268;5.192;2023-09-19T20:58:38;100614.69;;;18.23;78.71
74627;BME280;63132;52.268;5.192;2023-09-19T21:01:05;100625.44;;;18.24;78.88
74627;BME280;63132;52.268;5.192;2023-09-19T21:03:31;100614.28;;;18.34;78.93
74627;BME280;63132;52.268;5.192;2023-09-19T21:06:03;100608.69;;;18.34;79.03
74627;BME280;63132;52.268;5.192;2023-09-19T21:08:30;100617.03;;;18.24;79.12
74627;BME280;63132;52.268;5.192;2023-09-19T21:10:58;100608.13;;;18.17;79.18
74627;BME280;63132;52.268;5.192;2023-09-19T21:13:23;100599.28;;;18.18;79.32
74627;BME280;63132;52.268;5.192;2023-09-19T21:15:48;100624.84;;;18.30;79.21
74627;BME280;63132;52.268;5.192;2023-09-19T21:18:13;100603.16;;;18.12;79.64
74627;BME280;63132;52.268;5.192;2023-09-19T21:20:39;100599.94;;;18.32;78.69
74627;BME280;63132;52.268;5.192;2023-09-19T21:23:05;100594.81;;;18.39;78.00
74627;BME280;63132;52.268;5.192;2023-09-19T21:25:35;100605.13;;;18.42;77.56
74627;BME280;63132;52.268;5.192;2023-09-19T21:28:00;100591.75;;;18.56;77.77
74627;BME280;63132;52.268;5.192;2023-09-19T21:30:26;100582.56;;;18.55;76.98
74627;BME280;63132;52.268;5.192;2023-09-19T21:32:52;100577.09;;;18.51;77.25
74627;BME280;63132;52.268;5.192;2023-09-19T21:35:18;100589.44;;;18.63;76.73
74627;BME280;63132;52.268;5.192;2023-09-19T21:37:44;100574.63;;;18.63;76.49
74627;BME280;63132;52.268;5.192;2023-09-19T21:40:10;100577.41;;;18.53;77.13
74627;BME280;63132;52.268;5.192;2023-09-19T21:42:36;100570.41;;;18.49;76.52
74627;BME280;63132;52.268;5.192;2023-09-19T21:45:02;100563.72;;;18.65;76.17
74627;BME280;63132;52.268;5.192;2023-09-19T21:47:28;100560.16;;;18.73;75.75
74627;BME280;63132;52.268;5.192;2023-09-19T21:49:53;100566.84;;;18.67;76.10
74627;BME280;63132;52.268;5.192;2023-09-19T21:52:18;100567.00;;;18.63;76.36
74627;BME280;63132;52.268;5.192;2023-09-19T21:54:44;100569.53;;;18.70;76.22
74627;BME280;63132;52.268;5.192;2023-09-19T21:57:09;100568.53;;;18.64;76.30
74627;BME280;63132;52.268;5.192;2023-09-19T21:59:34;100573.34;;;18.54;76.51
74627;BME280;63132;52.268;5.192;2023-09-19T22:02:00;100572.44;;;18.58;76.92
74627;BME280;63132;52.268;5.192;2023-09-19T22:04:25;100585.22;;;18.59;76.83
74627;BME280;63132;52.268;5.192;2023-09-19T22:06:50;100586.78;;;18.69;76.95
74627;BME280;63132;52.268;5.192;2023-09-19T22:09:16;100577.25;;;18.57;77.05
74627;BME280;63132;52.268;5.192;2023-09-19T22:11:41;100582.44;;;18.68;76.87
74627;BME280;63132;52.268;5.192;2023-09-19T22:14:06;100593.34;;;18.75;76.21
74627;BME280;63132;52.268;5.192;2023-09-19T22:16:32;100588.94;;;18.56;77.01
74627;BME280;63132;52.268;5.192;2023-09-19T22:18:57;100574.66;;;18.81;76.71
74627;BME280;63132;52.268;5.192;2023-09-19T22:21:23;100583.34;;;18.65;77.36
74627;BME280;63132;52.268;5.192;2023-09-19T22:23:57;100585.72;;;18.75;76.80
74627;BME280;63132;52.268;5.192;2023-09-19T22:26:22;100583.84;;;18.91;76.06
74627;BME280;63132;52.268;5.192;2023-09-19T22:28:49;100579.78;;;18.92;75.68
74627;BME280;63132;52.268;5.192;2023-09-19T22:31:20;100580.28;;;18.81;76.18
74627;BME280;63132;52.268;5.192;2023-09-19T22:33:52;100586.53;;;18.85;76.40
74627;BME280;63132;52.268;5.192;2023-09-19T22:36:21;100579.19;;;18.78;75.92
74627;BME280;63132;52.268;5.192;2023-09-19T22:38:56;100581.53;;;18.80;76.11
74627;BME280;63132;52.268;5.192;2023-09-19T22:41:37;100577.28;;;18.75;76.16
74627;BME280;63132;52.268;5.192;2023-09-19T22:44:04;100576.22;;;18.82;75.70
74627;BME280;63132;52.268;5.192;2023-09-19T22:46:30;100577.47;;;18.90;75.20
74627;BME280;63132;52.268;5.192;2023-09-19T22:48:56;100579.47;;;18.99;74.57
74627;BME280;63132;52.268;5.192;2023-09-19T22:51:22;100578.88;;;19.04;74.38
74627;BME280;63132;52.268;5.192;2023-09-19T22:53:51;100577.63;;;18.87;74.68
74627;BME280;63132;52.268;5.192;2023-09-19T22:56:22;100568.56;;;18.92;74.70
74627;BME280;63132;52.268;5.192;2023-09-19T22:58:48;100566.88;;;18.94;74.33
74627;BME280;63132;52.268;5.192;2023-09-19T23:01:17;100594.63;;;19.01;74.02
74627;BME280;63132;52.268;5.192;2023-09-19T23:03:44;100576.69;;;18.99;73.94
74627;BME280;63132;52.268;5.192;2023-09-19T23:06:20;100575.91;;;19.07;73.92
74627;BME280;63132;52.268;5.192;2023-09-19T23:08:52;100574.03;;;19.04;73.24
74627;BME280;63132;52.268;5.192;2023-09-19T23:11:19;100577.94;;;19.07;73.37
74627;BME280;63132;52.268;5.192;2023-09-19T23:13:51;100573.88;;;18.99;73.59
74627;BME280;63132;52.268;5.192;2023-09-19T23:16:21;100579.31;;;18.84;73.67
74627;BME280;63132;52.268;5.192;2023-09-19T23:18:59;100577.78;;;18.92;73.81
74627;BME280;63132;52.268;5.192;2023-09-19T23:21:40;100592.75;;;18.89;73.84
74627;BME280;63132;52.268;5.192;2023-09-19T23:24:09;100584.19;;;19.02;73.10
74627;BME280;63132;52.268;5.192;2023-09-19T23:26:35;100581.06;;;19.00;73.22
74627;BME280;63132;52.268;5.192;2023-09-19T23:29:02;100579.97;;;19.16;72.46
74627;BME280;63132;52.268;5.192;2023-09-19T23:31:28;100588.69;;;19.08;72.57
74627;BME280;63132;52.268;5.192;2023-09-19T23:33:53;100593.22;;;19.15;72.39
74627;BME280;63132;52.268;5.192;2023-09-19T23:36:19;100584.47;;;19.04;72.63
74627;BME280;63132;52.268;5.192;2023-09-19T23:38:44;100587.59;;;19.06;72.32
74627;BME280;63132;52.268;5.192;2023-09-19T23:41:12;100599.91;;;18.90;72.73
74627;BME280;63132;52.268;5.192;2023-09-19T23:43:45;100595.56;;;19.17;71.79
74627;BME280;63132;52.268;5.192;2023-09-19T23:46:12;100594.44;;;19.14;71.82
74627;BME280;63132;52.268;5.192;2023-09-19T23:48:37;100586.03;;;19.14;72.31
74627;BME280;63132;52.268;5.192;2023-09-19T23:51:06;100593.81;;;19.28;71.48
74627;BME280;63132;52.268;5.192;2023-09-19T23:53:32;100586.78;;;19.33;71.51
74627;BME280;63132;52.268;5.192;2023-09-19T23:56:00;100585.56;;;19.16;71.88
74627;BME280;63132;52.268;5.192;2023-09-19T23:58:25;100589.47;;;19.18;71.46
